Time;durP1;ratioP1;P1;durP2;ratioP2;P2;SDS_P1;SDS_P2;PMS_P1;PMS_P2;Temp;Humidity;BMP_temperature;BMP_pressure;BME280_temperature;BME280_humidity;BME280_pressure;Samples;Min_cycle;Max_cycle;Signal;HPM_P1;HPM_P2
2023/11/06 06:46:37;;;;;;;6.45;1.30;;;;;;;;;;10554037;28;20381;-84
2023/11/06 06:51:38;;;;;;;9.30;1.90;;;;;;;;;;10547373;28;20024;-84
2023/11/06 06:56:39;;;;;;;7.35;1.98;;;;;;;;;;10542280;28;20055;-84
2023/11/06 07:01:42;;;;;;;6.65;1.67;;;;;;;;;;10541945;28;20017;-85
2023/11/06 07:06:43;;;;;;;7.28;3.15;;;;;;;;;;10543074;28;20438;-84
2023/11/06 07:11:45;;;;;;;4.07;1.38;;;;;;;;;;10541315;28;20114;-84
2023/11/06 07:16:46;;;;;;;7.05;2.97;;;;;;;;;;10543211;28;20397;-84
2023/11/06 07:21:47;;;;;;;6.65;1.75;;;;;;;;;;10539435;28;20120;-85
2023/11/06 07:26:49;;;;;;;7.53;1.88;;;;;;;;;;10541018;28;20028;-87
2023/11/06 07:31:50;;;;;;;9.15;1.70;;;;;;;;;;10540585;28;20502;-87
2023/11/06 07:36:51;;;;;;;4.75;1.83;;;;;;;;;;10538663;28;20032;-88
2023/11/06 07:41:52;;;;;;;7.28;2.47;;;;;;;;;;10538450;28;20477;-88
2023/11/06 07:46:54;;;;;;;9.95;1.95;;;;;;;;;;10538428;28;20032;-87
2023/11/06 07:51:55;;;;;;;6.32;1.30;;;;;;;;;;10539351;28;20029;-87
2023/11/06 07:56:56;;;;;;;6.32;1.67;;;;;;;;;;10519116;28;20028;-88
2023/11/06 08:01:57;;;;;;;3.28;1.55;;;;;;;;;;10518013;28;20074;-87
2023/11/06 08:06:58;;;;;;;4.70;1.10;;;;;;;;;;10522647;28;20020;-84
2023/11/06 08:11:59;;;;;;;5.43;1.50;;;;;;;;;;10522431;28;20052;-85
2023/11/06 08:17:00;;;;;;;;;;;;;;;;;;10521552;28;20092;-85
2023/11/06 08:22:01;;;;;;;6.70;2.05;;;;;;;;;;10545862;28;19917;-86
2023/11/06 08:27:02;;;;;;;;;;;;;;;;;;10544431;28;20464;-85
2023/11/06 08:32:03;;;;;;;5.75;1.70;;;;;;;;;;10545531;28;19908;-85
2023/11/06 08:37:04;;;;;;;;;;;;;;;;;;10543728;28;20027;-85
2023/11/06 08:42:05;;;;;;;8.38;2.10;;;;;;;;;;10544270;28;19923;-84
2023/11/06 08:47:07;;;;;;;7.05;1.83;;;;;;;;;;10518279;28;20096;-84
2023/11/06 08:52:09;;;;;;;6.18;2.00;;;;;;;;;;10516847;28;20137;-83
2023/11/06 08:57:10;;;;;;;8.15;2.08;;;;;;;;;;10516520;28;20029;-84
2023/11/06 09:02:11;;;;;;;6.75;1.70;;;;;;;;;;10514747;28;20490;-83
2023/11/06 09:07:12;;;;;;;6.75;1.90;;;;;;;;;;10513820;28;20485;-86
2023/11/06 09:12:13;;;;;;;5.43;1.48;;;;;;;;;;10516227;28;20113;-85
2023/11/06 09:17:14;;;;;;;5.47;1.65;;;;;;;;;;10512549;28;20028;-86
2023/11/06 09:22:15;;;;;;;10.07;2.05;;;;;;;;;;10511193;28;20029;-86
2023/11/06 09:27:16;;;;;;;7.57;2.03;;;;;;;;;;10511739;28;20052;-84
2023/11/06 09:32:18;;;;;;;;;;;;;;;;;;10526070;28;20024;-86
2023/11/06 09:37:19;;;;;;;9.07;2.15;;;;;;;;;;10522105;28;19904;-84
2023/11/06 09:42:20;;;;;;;8.75;2.30;;;;;;;;;;10517956;28;20096;-83
2023/11/06 09:47:21;;;;;;;6.00;1.40;;;;;;;;;;10516105;28;20016;-83
2023/11/06 09:52:22;;;;;;;;;;;;;;;;;;10514258;28;20059;-85
2023/11/06 09:57:24;;;;;;;7.20;1.85;;;;;;;;;;10514559;28;19909;-84
2023/11/06 10:02:25;;;;;;;7.80;2.20;;;;;;;;;;10517250;28;20121;-83
2023/11/06 10:07:52;;;;;;;5.30;1.55;;;;;;;;;;10513946;28;20024;-83
2023/11/06 10:13:07;;;;;;;6.00;1.33;;;;;;;;;;10514054;28;20395;-85
2023/11/06 10:18:21;;;;;;;8.00;2.70;;;;;;;;;;10511336;28;20111;-83
2023/11/06 10:23:26;;;;;;;8.20;2.08;;;;;;;;;;10513425;28;20020;-85
2023/11/06 10:28:27;;;;;;;6.07;1.17;;;;;;;;;;10512636;28;20032;-85
2023/11/06 10:33:29;;;;;;;5.47;1.33;;;;;;;;;;10509395;28;20028;-84
2023/11/06 10:38:33;;;;;;;10.18;1.80;;;;;;;;;;10509832;28;20035;-83
2023/11/06 10:43:34;;;;;;;4.32;1.40;;;;;;;;;;10507561;28;20104;-85
2023/11/06 10:48:45;;;;;;;5.18;1.45;;;;;;;;;;10507393;28;20028;-84
2023/11/06 10:53:47;;;;;;;7.10;1.40;;;;;;;;;;10507563;28;20484;-85
2023/11/06 10:58:49;;;;;;;5.18;1.70;;;;;;;;;;10506231;28;20031;-86
2023/11/06 11:03:51;;;;;;;6.63;1.83;;;;;;;;;;10509022;28;20035;-86
2023/11/06 11:08:53;;;;;;;5.25;1.52;;;;;;;;;;10508606;28;20389;-84
2023/11/06 11:13:55;;;;;;;6.57;2.00;;;;;;;;;;10507987;28;20117;-85
2023/11/06 11:18:56;;;;;;;6.78;2.78;;;;;;;;;;10507241;28;20127;-84
2023/11/06 11:23:57;;;;;;;6.97;2.22;;;;;;;;;;10511526;28;20488;-85
2023/11/06 11:28:58;;;;;;;;;;;;;;;;;;10511456;28;20063;-85
2023/11/06 11:33:59;;;;;;;5.22;1.85;;;;;;;;;;10520218;28;19997;-85
2023/11/06 11:39:01;;;;;;;6.60;2.47;;;;;;;;;;10523470;28;20033;-86
2023/11/06 11:44:04;;;;;;;8.43;2.00;;;;;;;;;;10521625;28;20032;-86
2023/11/06 11:49:05;;;;;;;4.15;1.75;;;;;;;;;;10531422;28;20020;-85
2023/11/06 11:54:06;;;;;;;6.05;1.40;;;;;;;;;;10519111;28;20035;-85
2023/11/06 11:59:07;;;;;;;;;;;;;;;;;;10528576;28;20021;-83
2023/11/06 12:04:17;;;;;;;5.55;2.10;;;;;;;;;;10528638;28;19909;-84
2023/11/06 12:09:19;;;;;;;9.17;5.93;;;;;;;;;;10528255;28;20073;-85
2023/11/06 12:14:20;;;;;;;4.63;2.00;;;;;;;;;;10528528;28;20021;-85
2023/11/06 12:19:21;;;;;;;4.85;1.67;;;;;;;;;;10527391;28;20033;-85
2023/11/06 12:24:22;;;;;;;;;;;;;;;;;;10530541;28;20024;-85
2023/11/06 12:29:27;;;;;;;4.32;1.38;;;;;;;;;;10514771;28;19919;-85
2023/11/06 12:34:29;;;;;;;5.45;1.52;;;;;;;;;;10513042;28;20028;-85
2023/11/06 12:39:34;;;;;;;4.10;1.42;;;;;;;;;;10512845;28;20055;-85
2023/11/06 12:44:39;;;;;;;3.72;1.50;;;;;;;;;;10512060;28;20063;-85
2023/11/06 12:49:50;;;;;;;4.18;1.30;;;;;;;;;;10514746;28;20025;-85
2023/11/06 12:54:51;;;;;;;5.40;1.95;;;;;;;;;;10517625;28;20024;-84
2023/11/06 12:59:52;;;;;;;;;;;;;;;;;;10487710;22;20050;-84
2023/11/06 13:04:53;;;;;;;3.67;1.08;;;;;;;;;;10388763;28;19905;-84
2023/11/06 13:09:55;;;;;;;5.28;1.40;;;;;;;;;;10389747;28;20109;-84
2023/11/06 13:14:57;;;;;;;4.05;1.70;;;;;;;;;;10390358;28;20055;-84
2023/11/06 13:19:58;;;;;;;6.55;2.10;;;;;;;;;;10392759;28;20036;-84
2023/11/06 13:24:59;;;;;;;4.03;1.13;;;;;;;;;;10392649;28;20140;-84
2023/11/06 13:30:00;;;;;;;4.35;1.65;;;;;;;;;;10390299;28;20070;-84
2023/11/06 13:35:01;;;;;;;;;;;;;;;;;;10391521;28;20069;-84
2023/11/06 13:40:13;;;;;;;3.20;1.15;;;;;;;;;;10412896;28;19905;-84
2023/11/06 13:45:14;;;;;;;3.03;1.80;;;;;;;;;;10417855;28;20025;-84
2023/11/06 13:50:28;;;;;;;;;;;;;;;;;;10390406;28;20493;-85
2023/11/06 13:55:36;;;;;;;2.88;1.05;;;;;;;;;;10386843;28;20008;-84
2023/11/06 14:00:56;;;;;;;4.78;1.90;;;;;;;;;;10385633;28;20026;-83
2023/11/06 14:05:58;;;;;;;2.95;1.10;;;;;;;;;;10384786;28;20026;-84
2023/11/06 14:11:01;;;;;;;4.25;2.10;;;;;;;;;;10384175;28;20030;-84
2023/11/06 14:16:02;;;;;;;4.40;1.65;;;;;;;;;;10389604;28;20025;-84
2023/11/06 14:21:03;;;;;;;;;;;;;;;;;;10389790;28;20029;-84
2023/11/06 14:26:07;;;;;;;5.90;1.67;;;;;;;;;;10389633;28;19917;-84
2023/11/06 14:31:09;;;;;;;5.80;1.50;;;;;;;;;;10393293;28;20030;-84
2023/11/06 14:36:10;;;;;;;3.28;1.30;;;;;;;;;;10397271;28;20053;-84
2023/11/06 14:41:12;;;;;;;;;;;;;;;;;;10409679;28;20104;-82
2023/11/06 14:46:13;;;;;;;3.55;1.20;;;;;;;;;;10409779;28;19911;-84
2023/11/06 14:51:14;;;;;;;;;;;;;;;;;;10387480;28;20026;-83
2023/11/06 14:56:16;;;;;;;4.68;1.55;;;;;;;;;;10385655;28;19913;-84
2023/11/06 15:01:17;;;;;;;4.22;1.30;;;;;;;;;;10385109;28;20030;-82
2023/11/06 15:06:18;;;;;;;;;;;;;;;;;;10389781;28;20088;-83
2023/11/06 15:11:19;;;;;;;3.50;1.80;;;;;;;;;;10392530;28;19909;-83
2023/11/06 15:16:20;;;;;;;;;;;;;;;;;;10394878;28;20033;-83
2023/11/06 15:21:21;;;;;;;4.13;1.20;;;;;;;;;;10392435;28;19906;-82
2023/11/06 15:26:22;;;;;;;4.82;1.67;;;;;;;;;;10389446;28;20508;-82
2023/11/06 15:31:23;;;;;;;;;;;;;;;;;;10400282;28;20033;-82
2023/11/06 15:36:24;;;;;;;2.40;1.17;;;;;;;;;;10390278;28;19913;-86
2023/11/06 15:41:25;;;;;;;;;;;;;;;;;;10407518;28;20034;-82
2023/11/06 15:46:26;;;;;;;3.95;1.48;;;;;;;;;;10396261;28;19909;-82
2023/11/06 15:51:27;;;;;;;;;;;;;;;;;;10385289;28;20433;-84
2023/11/06 15:56:28;;;;;;;5.40;2.10;;;;;;;;;;10382527;28;19917;-83
2023/11/06 16:01:29;;;;;;;;;;;;;;;;;;10387415;28;20086;-83
2023/11/06 16:06:31;;;;;;;4.75;1.70;;;;;;;;;;10387504;28;19910;-85
2023/11/06 16:11:32;;;;;;;7.70;3.30;;;;;;;;;;10385415;28;20030;-84
2023/11/06 16:16:33;;;;;;;5.25;2.08;;;;;;;;;;10385589;28;20030;-85
2023/11/06 16:21:38;;;;;;;2.45;1.00;;;;;;;;;;10391038;28;20113;-85
2023/11/06 16:26:39;;;;;;;4.70;2.28;;;;;;;;;;10391208;28;20037;-84
2023/11/06 16:31:40;;;;;;;;;;;;;;;;;;10392832;28;20026;-85
2023/11/06 16:36:43;;;;;;;3.67;1.50;;;;;;;;;;10394048;28;20387;-85
2023/11/06 16:41:44;;;;;;;3.10;1.50;;;;;;;;;;10391975;28;20034;-84
2023/11/06 16:46:45;;;;;;;;;;;;;;;;;;10397661;28;20037;-85
2023/11/06 16:51:46;;;;;;;5.28;2.03;;;;;;;;;;10390145;28;19955;-85
2023/11/06 16:56:47;;;;;;;;;;;;;;;;;;10391048;28;20045;-85
2023/11/06 17:01:57;;;;;;;4.90;1.50;;;;;;;;;;10392077;28;19937;-84
2023/11/06 17:07:06;;;;;;;4.63;2.27;;;;;;;;;;10390990;28;20030;-84
2023/11/06 17:12:24;;;;;;;4.90;1.65;;;;;;;;;;10390181;28;20273;-84
2023/11/06 17:17:25;;;;;;;7.30;1.77;;;;;;;;;;10391097;28;20398;-82
2023/11/06 17:22:26;;;;;;;3.92;1.60;;;;;;;;;;10394660;28;20044;-86
2023/11/06 17:27:27;;;;;;;3.70;1.50;;;;;;;;;;10394772;28;20458;-87
2023/11/06 17:32:29;;;;;;;;;;;;;;;;;;10380152;28;20030;-86
2023/11/06 17:37:30;;;;;;;6.05;1.65;;;;;;;;;;10387679;28;19905;-86
2023/11/06 17:42:31;;;;;;;2.78;1.27;;;;;;;;;;10394755;28;20065;-86
2023/11/06 17:47:32;;;;;;;4.75;1.50;;;;;;;;;;10391064;28;20022;-85
2023/11/06 17:52:33;;;;;;;2.75;1.35;;;;;;;;;;10377908;28;20026;-86
2023/11/06 17:57:34;;;;;;;3.72;1.58;;;;;;;;;;10379217;28;20141;-85
2023/11/06 18:02:35;;;;;;;3.17;1.60;;;;;;;;;;10379174;28;20025;-85
2023/11/06 18:07:37;;;;;;;3.05;1.38;;;;;;;;;;10378246;28;20025;-86
2023/11/06 18:12:44;;;;;;;4.07;1.30;;;;;;;;;;10377821;28;20025;-86
2023/11/06 18:17:45;;;;;;;4.25;1.30;;;;;;;;;;10376790;28;20059;-86
2023/11/06 18:22:47;;;;;;;1.92;1.20;;;;;;;;;;10377434;28;20029;-85
2023/11/06 18:27:49;;;;;;;3.22;1.38;;;;;;;;;;10377919;28;20018;-88
2023/11/06 18:32:51;;;;;;;3.78;1.50;;;;;;;;;;10379169;28;20029;-86
2023/11/06 18:37:53;;;;;;;2.92;1.40;;;;;;;;;;10377063;28;20117;-86
2023/11/06 18:42:55;;;;;;;3.75;1.58;;;;;;;;;;10376205;28;20037;-86
2023/11/06 18:47:56;;;;;;;3.53;1.40;;;;;;;;;;10377914;28;20029;-86
2023/11/06 18:52:57;;;;;;;2.80;1.48;;;;;;;;;;10377911;28;20551;-86
2023/11/06 18:57:59;;;;;;;3.03;1.40;;;;;;;;;;10433655;22;20060;-81
2023/11/06 19:03:00;;;;;;;3.05;1.45;;;;;;;;;;10429980;28;20029;-82
2023/11/06 19:08:01;;;;;;;;;;;;;;;;;;10431907;28;20492;-82
2023/11/06 19:13:02;;;;;;;4.35;1.50;;;;;;;;;;10431660;28;19965;-82
2023/11/06 19:18:03;;;;;;;;;;;;;;;;;;10430829;28;20116;-82
2023/11/06 19:23:04;;;;;;;2.72;1.40;;;;;;;;;;10428819;28;19912;-80
2023/11/06 19:28:04;;;;;;;;;;;;;;;;;;10432139;28;20030;-81
2023/11/06 19:33:06;;;;;;;5.22;1.75;;;;;;;;;;10431890;28;19964;-82
2023/11/06 19:38:07;;;;;;;2.72;1.60;;;;;;;;;;10432241;28;20105;-83
2023/11/06 19:43:08;;;;;;;;;;;;;;;;;;10431085;28;20025;-82
2023/11/06 19:48:09;;;;;;;3.25;1.60;;;;;;;;;;10429318;28;19905;-83
2023/11/06 19:53:10;;;;;;;;;;;;;;;;;;10435658;28;20445;-82
2023/11/06 19:58:17;;;;;;;2.90;1.27;;;;;;;;;;10437135;28;19913;-82
2023/11/06 20:03:18;;;;;;;2.83;1.30;;;;;;;;;;10436784;28;20049;-82
2023/11/06 20:08:20;;;;;;;;;;;;;;;;;;10438109;28;20030;-82
